Edward Cornwallis — CGJV — position and weather

sailwx.info

Track history (hours):
 
Tides and Currents Weather Stations Pressure Air Temp Water Temp Dewpoint Dewpoint Depression Visibility Wind Speed Wind Dir Waves Ship Positions

Edward Cornwallis

Last reported at 2014-Dec-16 00:00 UTC. Time now 2014-Dec-20 15:49 UTC.
Position N 48°30' W 058°30'.

Length 83 m; draft 6 m.

Type: SAR. MMSI: 316020000.

Wind from 360 at 4 knots

Barometer 1014.7 mb
Air temperature 1.3 ° C
Dewpoint -0.0 ° C

Date/timePositionNaut miles runAvg speedWind from/ knotsBaromVisibWave heightAir tempDewpointWater temp
2014-Dec-16 00:00N 48°30' W 058°30'0 0.0 360 / 41014.7 1.3-0.0
2014-Dec-15 18:00N 48°30' W 058°30'0 0.0 010 / 51007.6 4.6 1.4
2014-Dec-15 12:00N 48°30' W 058°30'0 0.0 230 / 31003.0 3.5 3.3
2014-Dec-15 11:00N 48°30' W 058°30'0 0.0 300 / 61001.7 4.2 4.0
2014-Dec-15 10:00N 48°30' W 058°30'0 0.0 270 / 81000.5 4.1 3.9
2014-Dec-15 09:00N 48°30' W 058°30'0 0.0 290 / 7999.6 4.9 4.6
2014-Dec-15 06:00N 48°30' W 058°30'0 0.0 200 / 2997.3 6.1 6.0
2014-Dec-15 04:00N 48°30' W 058°30'0 0.0 190 / 12996.9 7.6 7.4
2014-Dec-15 03:00N 48°30' W 058°30'0 0.0 080 / 7997.8 8.9 8.5
2014-Dec-15 02:00N 48°30' W 058°30'0 0.0 100 / 2998.1 10.3 9.1
2014-Dec-15 01:00N 48°30' W 058°30'0 0.0 040 / 5998.0 9.8 8.7
2014-Dec-15 00:00N 48°30' W 058°30'0 0.0 060 / 10998.7 9.4 8.3
2014-Dec-14 23:00N 48°30' W 058°30'0 0.0 050 / 6999.5 9.5 8.4
2014-Dec-14 22:00N 48°30' W 058°30'0 0.0 070 / 5999.9 10.1 8.8
2014-Dec-14 21:00N 48°30' W 058°30'0 0.0 070 / 51000.2 9.7 8.9
2014-Dec-14 20:00N 48°30' W 058°30'0 0.0 070 / 51000.7 10.3 9.4
2014-Dec-14 19:00N 48°30' W 058°30'0 0.0 080 / 61001.0 10.2 9.4
2014-Dec-14 18:00N 48°30' W 058°30'0 0.0 080 / 71001.2 11.3 9.9 4.7
2014-Dec-14 17:00N 48°30' W 058°30'0 0.0 070 / 61001.8 11.1 9.9 4.6
2014-Dec-14 16:00N 48°30' W 058°30'4 4.0 080 / 61002.5 10.5 9.8 4.6
2014-Dec-14 15:00N 48°30' W 058°36'1010.0 240 / 51003.3 5.7 5.6 4.5
2014-Dec-14 14:00N 48°24' W 058°48'1717.0 010 / 81003.9 3.8 3.6 4.2
2014-Dec-14 13:00N 48°12' W 059°06'1414.4 1004.2 3.8 3.6 4.3
2014-Dec-14 12:00N 48°00' W 059°18'7 1.2 360 / 11003.9 4.2 4.0 4.8
2014-Dec-14 06:00N 47°54' W 059°24'163 3.6 340 / 41004.6 7.4 7.2
2014-Dec-12 09:00N 46°12' W 062°30'   110 / 51012.6 6.7 6.5
Track history (hours):
 
Tides and Currents Weather Stations Pressure Air Temp Water Temp Dewpoint Dewpoint Depression Visibility Wind Speed Wind Dir Waves Ship Positions

Edward Cornwallis

Last reported at 2014-Dec-16 00:00 UTC. Time now 2014-Dec-20 15:49 UTC.
Position N 48°30' W 058°30'.

Length 83 m; draft 6 m.

Type: SAR. MMSI: 316020000.

Wind from 360 at 4 knots

Barometer 1014.7 mb
Air temperature 1.3 ° C
Dewpoint -0.0 ° C

Date/timePositionNaut miles runAvg speedWind from/ knotsBaromVisibWave heightAir tempDewpointWater temp
2014-Dec-16 00:00N 48°30' W 058°30'0 0.0 360 / 41014.7 1.3-0.0
2014-Dec-15 18:00N 48°30' W 058°30'0 0.0 010 / 51007.6 4.6 1.4
2014-Dec-15 12:00N 48°30' W 058°30'0 0.0 230 / 31003.0 3.5 3.3
2014-Dec-15 11:00N 48°30' W 058°30'0 0.0 300 / 61001.7 4.2 4.0
2014-Dec-15 10:00N 48°30' W 058°30'0 0.0 270 / 81000.5 4.1 3.9
2014-Dec-15 09:00N 48°30' W 058°30'0 0.0 290 / 7999.6 4.9 4.6
2014-Dec-15 06:00N 48°30' W 058°30'0 0.0 200 / 2997.3 6.1 6.0
2014-Dec-15 04:00N 48°30' W 058°30'0 0.0 190 / 12996.9 7.6 7.4
2014-Dec-15 03:00N 48°30' W 058°30'0 0.0 080 / 7997.8 8.9 8.5
2014-Dec-15 02:00N 48°30' W 058°30'0 0.0 100 / 2998.1 10.3 9.1
2014-Dec-15 01:00N 48°30' W 058°30'0 0.0 040 / 5998.0 9.8 8.7
2014-Dec-15 00:00N 48°30' W 058°30'0 0.0 060 / 10998.7 9.4 8.3
2014-Dec-14 23:00N 48°30' W 058°30'0 0.0 050 / 6999.5 9.5 8.4
2014-Dec-14 22:00N 48°30' W 058°30'0 0.0 070 / 5999.9 10.1 8.8
2014-Dec-14 21:00N 48°30' W 058°30'0 0.0 070 / 51000.2 9.7 8.9
2014-Dec-14 20:00N 48°30' W 058°30'0 0.0 070 / 51000.7 10.3 9.4
2014-Dec-14 19:00N 48°30' W 058°30'0 0.0 080 / 61001.0 10.2 9.4
2014-Dec-14 18:00N 48°30' W 058°30'0 0.0 080 / 71001.2 11.3 9.9 4.7
2014-Dec-14 17:00N 48°30' W 058°30'0 0.0 070 / 61001.8 11.1 9.9 4.6
2014-Dec-14 16:00N 48°30' W 058°30'4 4.0 080 / 61002.5 10.5 9.8 4.6
2014-Dec-14 15:00N 48°30' W 058°36'1010.0 240 / 51003.3 5.7 5.6 4.5
2014-Dec-14 14:00N 48°24' W 058°48'1717.0 010 / 81003.9 3.8 3.6 4.2
2014-Dec-14 13:00N 48°12' W 059°06'1414.4 1004.2 3.8 3.6 4.3
2014-Dec-14 12:00N 48°00' W 059°18'7 1.2 360 / 11003.9 4.2 4.0 4.8
2014-Dec-14 06:00N 47°54' W 059°24'163 3.6 340 / 41004.6 7.4 7.2
2014-Dec-12 09:00N 46°12' W 062°30'   110 / 51012.6 6.7 6.5

Dump ship's entire track history